sensor_id;sensor_type;location;lat;lon;timestamp;P1;durP1;ratioP1;P2;durP2;ratioP2
3050;SDS011;1535;51.098;6.414;2023-11-19T00:01:00;5.77;;;5.67;;
3050;SDS011;1535;51.098;6.414;2023-11-19T00:03:30;6.27;;;6.17;;
3050;SDS011;1535;51.098;6.414;2023-11-19T00:05:58;6.43;;;6.33;;
3050;SDS011;1535;51.098;6.414;2023-11-19T00:08:25;5.97;;;5.87;;
3050;SDS011;1535;51.098;6.414;2023-11-19T00:10:54;6.30;;;6.20;;
3050;SDS011;1535;51.098;6.414;2023-11-19T00:13:21;6.00;;;5.90;;
3050;SDS011;1535;51.098;6.414;2023-11-19T00:15:51;6.20;;;6.10;;
3050;SDS011;1535;51.098;6.414;2023-11-19T00:18:17;6.13;;;6.03;;
3050;SDS011;1535;51.098;6.414;2023-11-19T00:20:44;6.20;;;6.10;;
3050;SDS011;1535;51.098;6.414;2023-11-19T00:23:12;6.60;;;6.50;;
3050;SDS011;1535;51.098;6.414;2023-11-19T00:25:39;6.30;;;6.20;;
3050;SDS011;1535;51.098;6.414;2023-11-19T00:28:07;6.20;;;6.10;;
3050;SDS011;1535;51.098;6.414;2023-11-19T00:30:34;5.93;;;5.83;;
3050;SDS011;1535;51.098;6.414;2023-11-19T00:33:02;5.57;;;5.47;;
3050;SDS011;1535;51.098;6.414;2023-11-19T00:35:30;6.10;;;6.00;;
3050;SDS011;1535;51.098;6.414;2023-11-19T00:37:58;6.10;;;6.00;;
3050;SDS011;1535;51.098;6.414;2023-11-19T00:40:26;6.17;;;6.07;;
3050;SDS011;1535;51.098;6.414;2023-11-19T00:42:53;6.50;;;6.40;;
3050;SDS011;1535;51.098;6.414;2023-11-19T00:45:22;5.50;;;5.40;;
3050;SDS011;1535;51.098;6.414;2023-11-19T00:47:50;5.80;;;5.70;;
3050;SDS011;1535;51.098;6.414;2023-11-19T00:50:18;5.70;;;5.60;;
3050;SDS011;1535;51.098;6.414;2023-11-19T00:52:46;5.73;;;5.63;;
3050;SDS011;1535;51.098;6.414;2023-11-19T00:55:13;5.50;;;5.40;;
3050;SDS011;1535;51.098;6.414;2023-11-19T00:57:40;6.07;;;5.97;;
3050;SDS011;1535;51.098;6.414;2023-11-19T01:00:07;5.67;;;5.57;;
3050;SDS011;1535;51.098;6.414;2023-11-19T01:02:44;5.50;;;5.40;;
3050;SDS011;1535;51.098;6.414;2023-11-19T01:05:14;5.13;;;5.10;;
3050;SDS011;1535;51.098;6.414;2023-11-19T01:07:45;5.13;;;5.03;;
3050;SDS011;1535;51.098;6.414;2023-11-19T01:10:13;5.40;;;5.30;;
3050;SDS011;1535;51.098;6.414;2023-11-19T01:12:40;5.50;;;5.40;;
3050;SDS011;1535;51.098;6.414;2023-11-19T01:15:08;5.50;;;5.40;;
3050;SDS011;1535;51.098;6.414;2023-11-19T01:17:36;5.23;;;5.13;;
3050;SDS011;1535;51.098;6.414;2023-11-19T01:20:05;5.20;;;5.10;;
3050;SDS011;1535;51.098;6.414;2023-11-19T01:22:32;4.80;;;4.80;;
3050;SDS011;1535;51.098;6.414;2023-11-19T01:25:00;5.70;;;5.60;;
3050;SDS011;1535;51.098;6.414;2023-11-19T01:27:28;5.83;;;5.73;;
3050;SDS011;1535;51.098;6.414;2023-11-19T01:29:54;5.57;;;5.47;;
3050;SDS011;1535;51.098;6.414;2023-11-19T01:32:22;4.53;;;4.53;;
3050;SDS011;1535;51.098;6.414;2023-11-19T01:34:50;4.70;;;4.70;;
3050;SDS011;1535;51.098;6.414;2023-11-19T01:37:18;4.73;;;4.73;;
3050;SDS011;1535;51.098;6.414;2023-11-19T01:39:45;4.50;;;4.50;;
3050;SDS011;1535;51.098;6.414;2023-11-19T01:42:12;4.77;;;4.77;;
3050;SDS011;1535;51.098;6.414;2023-11-19T01:44:40;4.83;;;4.83;;
3050;SDS011;1535;51.098;6.414;2023-11-19T01:47:07;5.00;;;5.00;;
3050;SDS011;1535;51.098;6.414;2023-11-19T01:49:35;4.67;;;4.67;;
3050;SDS011;1535;51.098;6.414;2023-11-19T01:52:02;4.43;;;4.43;;
3050;SDS011;1535;51.098;6.414;2023-11-19T01:54:30;4.20;;;4.20;;
3050;SDS011;1535;51.098;6.414;2023-11-19T01:56:58;4.33;;;4.33;;
3050;SDS011;1535;51.098;6.414;2023-11-19T01:59:26;4.23;;;4.23;;
3050;SDS011;1535;51.098;6.414;2023-11-19T02:01:53;4.20;;;4.20;;
3050;SDS011;1535;51.098;6.414;2023-11-19T02:04:22;4.37;;;4.37;;
3050;SDS011;1535;51.098;6.414;2023-11-19T02:06:49;4.40;;;4.40;;
3050;SDS011;1535;51.098;6.414;2023-11-19T02:09:18;4.53;;;4.53;;
3050;SDS011;1535;51.098;6.414;2023-11-19T02:11:47;5.00;;;5.00;;
3050;SDS011;1535;51.098;6.414;2023-11-19T02:14:16;5.10;;;5.10;;
3050;SDS011;1535;51.098;6.414;2023-11-19T02:16:45;5.40;;;5.30;;
3050;SDS011;1535;51.098;6.414;2023-11-19T02:19:12;5.60;;;5.50;;
3050;SDS011;1535;51.098;6.414;2023-11-19T02:21:39;5.40;;;5.30;;
3050;SDS011;1535;51.098;6.414;2023-11-19T02:24:08;5.23;;;5.13;;
3050;SDS011;1535;51.098;6.414;2023-11-19T02:26:39;5.00;;;5.00;;
3050;SDS011;1535;51.098;6.414;2023-11-19T02:29:11;5.30;;;5.20;;
3050;SDS011;1535;51.098;6.414;2023-11-19T02:31:38;4.93;;;4.93;;
3050;SDS011;1535;51.098;6.414;2023-11-19T02:34:05;5.40;;;5.30;;
3050;SDS011;1535;51.098;6.414;2023-11-19T02:36:33;5.20;;;5.10;;
3050;SDS011;1535;51.098;6.414;2023-11-19T02:39:00;4.37;;;4.37;;
3050;SDS011;1535;51.098;6.414;2023-11-19T02:41:28;4.97;;;4.97;;
3050;SDS011;1535;51.098;6.414;2023-11-19T02:43:55;4.67;;;4.67;;
3050;SDS011;1535;51.098;6.414;2023-11-19T02:46:25;4.80;;;4.80;;
3050;SDS011;1535;51.098;6.414;2023-11-19T02:48:52;4.57;;;4.57;;
3050;SDS011;1535;51.098;6.414;2023-11-19T02:51:20;4.90;;;4.90;;
3050;SDS011;1535;51.098;6.414;2023-11-19T02:53:47;4.67;;;4.67;;
3050;SDS011;1535;51.098;6.414;2023-11-19T02:56:14;4.67;;;4.67;;
3050;SDS011;1535;51.098;6.414;2023-11-19T02:58:45;4.80;;;4.80;;
3050;SDS011;1535;51.098;6.414;2023-11-19T03:01:14;4.47;;;4.47;;
3050;SDS011;1535;51.098;6.414;2023-11-19T03:03:55;4.53;;;4.53;;
3050;SDS011;1535;51.098;6.414;2023-11-19T03:06:23;4.60;;;4.60;;
3050;SDS011;1535;51.098;6.414;2023-11-19T03:08:50;5.20;;;5.10;;
3050;SDS011;1535;51.098;6.414;2023-11-19T03:11:17;4.73;;;4.73;;
3050;SDS011;1535;51.098;6.414;2023-11-19T03:13:44;4.90;;;4.90;;
3050;SDS011;1535;51.098;6.414;2023-11-19T03:16:12;5.63;;;5.53;;
3050;SDS011;1535;51.098;6.414;2023-11-19T03:18:39;5.53;;;5.43;;
3050;SDS011;1535;51.098;6.414;2023-11-19T03:21:07;5.40;;;5.30;;
3050;SDS011;1535;51.098;6.414;2023-11-19T03:23:34;5.07;;;5.07;;
3050;SDS011;1535;51.098;6.414;2023-11-19T03:26:01;5.97;;;5.87;;
3050;SDS011;1535;51.098;6.414;2023-11-19T03:28:30;6.17;;;6.07;;
3050;SDS011;1535;51.098;6.414;2023-11-19T03:30:57;6.40;;;6.30;;
3050;SDS011;1535;51.098;6.414;2023-11-19T03:33:24;6.43;;;6.33;;
3050;SDS011;1535;51.098;6.414;2023-11-19T03:35:53;6.70;;;6.60;;
3050;SDS011;1535;51.098;6.414;2023-11-19T03:38:22;6.37;;;6.27;;
3050;SDS011;1535;51.098;6.414;2023-11-19T03:40:49;5.70;;;5.60;;
3050;SDS011;1535;51.098;6.414;2023-11-19T03:43:17;5.53;;;5.43;;
3050;SDS011;1535;51.098;6.414;2023-11-19T03:45:45;5.87;;;5.77;;
3050;SDS011;1535;51.098;6.414;2023-11-19T03:48:13;5.53;;;5.43;;
3050;SDS011;1535;51.098;6.414;2023-11-19T03:50:41;5.37;;;5.27;;
3050;SDS011;1535;51.098;6.414;2023-11-19T03:53:09;4.97;;;4.97;;
3050;SDS011;1535;51.098;6.414;2023-11-19T03:55:39;4.73;;;4.73;;
3050;SDS011;1535;51.098;6.414;2023-11-19T03:58:06;4.13;;;4.13;;
3050;SDS011;1535;51.098;6.414;2023-11-19T04:00:33;4.70;;;4.70;;
3050;SDS011;1535;51.098;6.414;2023-11-19T04:03:01;3.60;;;3.60;;
3050;SDS011;1535;51.098;6.414;2023-11-19T04:05:28;3.70;;;3.70;;
3050;SDS011;1535;51.098;6.414;2023-11-19T04:07:55;3.50;;;3.50;;
3050;SDS011;1535;51.098;6.414;2023-11-19T04:10:22;3.60;;;3.60;;
3050;SDS011;1535;51.098;6.414;2023-11-19T04:12:50;3.23;;;3.23;;
3050;SDS011;1535;51.098;6.414;2023-11-19T04:15:17;3.47;;;3.47;;
3050;SDS011;1535;51.098;6.414;2023-11-19T04:17:44;3.77;;;3.77;;
3050;SDS011;1535;51.098;6.414;2023-11-19T04:20:11;3.60;;;3.60;;
3050;SDS011;1535;51.098;6.414;2023-11-19T04:22:39;3.47;;;3.47;;
3050;SDS011;1535;51.098;6.414;2023-11-19T04:25:07;3.70;;;3.70;;
3050;SDS011;1535;51.098;6.414;2023-11-19T04:27:34;3.77;;;3.77;;
3050;SDS011;1535;51.098;6.414;2023-11-19T04:30:03;3.93;;;3.93;;
3050;SDS011;1535;51.098;6.414;2023-11-19T04:32:35;4.00;;;4.00;;
3050;SDS011;1535;51.098;6.414;2023-11-19T04:35:03;4.00;;;4.00;;
3050;SDS011;1535;51.098;6.414;2023-11-19T04:37:31;4.47;;;4.47;;
3050;SDS011;1535;51.098;6.414;2023-11-19T04:39:59;4.00;;;4.00;;
3050;SDS011;1535;51.098;6.414;2023-11-19T04:42:26;4.17;;;4.17;;
3050;SDS011;1535;51.098;6.414;2023-11-19T04:44:55;4.57;;;4.57;;
3050;SDS011;1535;51.098;6.414;2023-11-19T04:47:23;5.00;;;5.00;;
3050;SDS011;1535;51.098;6.414;2023-11-19T04:49:50;4.73;;;4.73;;
3050;SDS011;1535;51.098;6.414;2023-11-19T04:52:18;5.17;;;5.07;;
3050;SDS011;1535;51.098;6.414;2023-11-19T04:54:45;4.60;;;4.60;;
3050;SDS011;1535;51.098;6.414;2023-11-19T04:57:13;4.50;;;4.50;;
3050;SDS011;1535;51.098;6.414;2023-11-19T04:59:40;4.50;;;4.50;;
3050;SDS011;1535;51.098;6.414;2023-11-19T05:02:08;5.17;;;5.07;;
3050;SDS011;1535;51.098;6.414;2023-11-19T05:04:36;5.00;;;5.00;;
3050;SDS011;1535;51.098;6.414;2023-11-19T05:07:03;5.43;;;5.33;;
3050;SDS011;1535;51.098;6.414;2023-11-19T05:09:30;5.40;;;5.30;;
3050;SDS011;1535;51.098;6.414;2023-11-19T05:11:57;5.20;;;5.10;;
3050;SDS011;1535;51.098;6.414;2023-11-19T05:14:25;5.60;;;5.50;;
3050;SDS011;1535;51.098;6.414;2023-11-19T05:16:52;5.83;;;5.73;;
3050;SDS011;1535;51.098;6.414;2023-11-19T05:19:18;6.07;;;5.97;;
3050;SDS011;1535;51.098;6.414;2023-11-19T05:21:48;5.30;;;5.20;;
3050;SDS011;1535;51.098;6.414;2023-11-19T05:24:17;5.60;;;5.50;;
3050;SDS011;1535;51.098;6.414;2023-11-19T05:26:44;5.27;;;5.17;;
3050;SDS011;1535;51.098;6.414;2023-11-19T05:29:13;5.67;;;5.57;;
3050;SDS011;1535;51.098;6.414;2023-11-19T05:31:39;5.30;;;5.20;;
3050;SDS011;1535;51.098;6.414;2023-11-19T05:34:06;5.30;;;5.20;;
3050;SDS011;1535;51.098;6.414;2023-11-19T05:36:33;4.93;;;4.93;;
3050;SDS011;1535;51.098;6.414;2023-11-19T05:39:02;4.87;;;4.87;;
3050;SDS011;1535;51.098;6.414;2023-11-19T05:41:29;5.47;;;5.37;;
3050;SDS011;1535;51.098;6.414;2023-11-19T05:43:56;5.30;;;5.20;;
3050;SDS011;1535;51.098;6.414;2023-11-19T05:46:24;5.10;;;5.00;;
3050;SDS011;1535;51.098;6.414;2023-11-19T05:48:53;5.53;;;5.43;;
3050;SDS011;1535;51.098;6.414;2023-11-19T05:51:20;5.47;;;5.37;;
3050;SDS011;1535;51.098;6.414;2023-11-19T05:53:48;5.87;;;5.77;;
3050;SDS011;1535;51.098;6.414;2023-11-19T05:56:17;6.10;;;6.00;;
3050;SDS011;1535;51.098;6.414;2023-11-19T05:58:47;6.10;;;6.00;;
3050;SDS011;1535;51.098;6.414;2023-11-19T06:01:14;5.97;;;5.87;;
3050;SDS011;1535;51.098;6.414;2023-11-19T06:03:41;6.70;;;6.60;;
3050;SDS011;1535;51.098;6.414;2023-11-19T06:06:12;6.20;;;6.10;;
3050;SDS011;1535;51.098;6.414;2023-11-19T06:08:39;6.70;;;6.60;;
3050;SDS011;1535;51.098;6.414;2023-11-19T06:11:06;6.50;;;6.40;;
3050;SDS011;1535;51.098;6.414;2023-11-19T06:13:34;6.30;;;6.20;;
3050;SDS011;1535;51.098;6.414;2023-11-19T06:16:01;5.90;;;5.80;;
3050;SDS011;1535;51.098;6.414;2023-11-19T06:18:28;5.80;;;5.70;;
3050;SDS011;1535;51.098;6.414;2023-11-19T06:20:56;6.70;;;6.60;;
3050;SDS011;1535;51.098;6.414;2023-11-19T06:23:23;6.20;;;6.10;;
3050;SDS011;1535;51.098;6.414;2023-11-19T06:25:50;6.90;;;6.80;;
3050;SDS011;1535;51.098;6.414;2023-11-19T06:28:17;6.57;;;6.47;;
3050;SDS011;1535;51.098;6.414;2023-11-19T06:30:45;6.60;;;6.50;;
3050;SDS011;1535;51.098;6.414;2023-11-19T06:33:13;6.97;;;6.87;;
3050;SDS011;1535;51.098;6.414;2023-11-19T06:35:39;7.47;;;7.37;;
3050;SDS011;1535;51.098;6.414;2023-11-19T06:38:06;7.50;;;7.40;;
3050;SDS011;1535;51.098;6.414;2023-11-19T06:40:33;7.27;;;7.17;;
3050;SDS011;1535;51.098;6.414;2023-11-19T06:43:01;7.27;;;7.17;;
3050;SDS011;1535;51.098;6.414;2023-11-19T06:45:28;7.03;;;6.93;;
3050;SDS011;1535;51.098;6.414;2023-11-19T06:47:57;7.23;;;7.13;;
3050;SDS011;1535;51.098;6.414;2023-11-19T06:50:28;7.03;;;6.93;;
3050;SDS011;1535;51.098;6.414;2023-11-19T06:52:55;7.10;;;7.00;;
3050;SDS011;1535;51.098;6.414;2023-11-19T06:55:21;7.40;;;7.30;;
3050;SDS011;1535;51.098;6.414;2023-11-19T06:57:48;7.80;;;7.70;;
3050;SDS011;1535;51.098;6.414;2023-11-19T07:00:15;7.23;;;7.13;;
3050;SDS011;1535;51.098;6.414;2023-11-19T07:02:43;7.20;;;7.10;;
3050;SDS011;1535;51.098;6.414;2023-11-19T07:05:11;7.70;;;7.60;;
3050;SDS011;1535;51.098;6.414;2023-11-19T07:07:38;8.03;;;7.93;;
3050;SDS011;1535;51.098;6.414;2023-11-19T07:10:06;7.90;;;7.80;;
3050;SDS011;1535;51.098;6.414;2023-11-19T07:12:34;8.00;;;7.90;;
3050;SDS011;1535;51.098;6.414;2023-11-19T07:15:01;7.70;;;7.60;;
3050;SDS011;1535;51.098;6.414;2023-11-19T07:17:29;7.30;;;7.20;;
3050;SDS011;1535;51.098;6.414;2023-11-19T07:19:56;7.60;;;7.50;;
3050;SDS011;1535;51.098;6.414;2023-11-19T07:22:26;7.50;;;7.40;;
3050;SDS011;1535;51.098;6.414;2023-11-19T07:24:54;7.27;;;7.17;;
3050;SDS011;1535;51.098;6.414;2023-11-19T07:27:21;7.40;;;7.30;;
3050;SDS011;1535;51.098;6.414;2023-11-19T07:29:49;7.40;;;7.30;;
3050;SDS011;1535;51.098;6.414;2023-11-19T07:32:16;6.73;;;6.63;;
3050;SDS011;1535;51.098;6.414;2023-11-19T07:34:44;6.83;;;6.73;;
3050;SDS011;1535;51.098;6.414;2023-11-19T07:37:11;6.90;;;6.80;;
3050;SDS011;1535;51.098;6.414;2023-11-19T07:39:39;6.60;;;6.50;;
3050;SDS011;1535;51.098;6.414;2023-11-19T07:42:07;7.17;;;7.07;;
3050;SDS011;1535;51.098;6.414;2023-11-19T07:44:35;6.73;;;6.63;;
3050;SDS011;1535;51.098;6.414;2023-11-19T07:47:02;6.93;;;6.83;;
3050;SDS011;1535;51.098;6.414;2023-11-19T07:49:29;7.00;;;6.90;;
3050;SDS011;1535;51.098;6.414;2023-11-19T07:51:56;7.10;;;7.00;;
3050;SDS011;1535;51.098;6.414;2023-11-19T07:54:23;7.23;;;7.13;;
3050;SDS011;1535;51.098;6.414;2023-11-19T07:56:51;6.83;;;6.73;;
3050;SDS011;1535;51.098;6.414;2023-11-19T07:59:20;6.87;;;6.77;;
3050;SDS011;1535;51.098;6.414;2023-11-19T08:01:47;6.80;;;6.70;;
3050;SDS011;1535;51.098;6.414;2023-11-19T08:04:14;6.67;;;6.57;;
3050;SDS011;1535;51.098;6.414;2023-11-19T08:06:41;7.17;;;7.07;;
3050;SDS011;1535;51.098;6.414;2023-11-19T08:09:08;7.30;;;7.20;;
3050;SDS011;1535;51.098;6.414;2023-11-19T08:11:38;7.40;;;7.30;;
3050;SDS011;1535;51.098;6.414;2023-11-19T08:14:07;7.40;;;7.30;;
3050;SDS011;1535;51.098;6.414;2023-11-19T08:16:35;7.27;;;7.17;;
3050;SDS011;1535;51.098;6.414;2023-11-19T08:19:02;7.03;;;6.93;;
3050;SDS011;1535;51.098;6.414;2023-11-19T08:21:30;7.37;;;7.27;;
3050;SDS011;1535;51.098;6.414;2023-11-19T08:23:57;7.37;;;7.27;;
3050;SDS011;1535;51.098;6.414;2023-11-19T08:26:24;7.27;;;7.17;;
3050;SDS011;1535;51.098;6.414;2023-11-19T08:28:51;7.60;;;7.50;;
3050;SDS011;1535;51.098;6.414;2023-11-19T08:31:20;8.27;;;8.17;;
3050;SDS011;1535;51.098;6.414;2023-11-19T08:33:47;8.07;;;7.97;;
3050;SDS011;1535;51.098;6.414;2023-11-19T08:36:17;7.80;;;7.70;;
3050;SDS011;1535;51.098;6.414;2023-11-19T08:38:44;7.97;;;7.87;;
3050;SDS011;1535;51.098;6.414;2023-11-19T08:41:11;8.20;;;8.10;;
3050;SDS011;1535;51.098;6.414;2023-11-19T08:43:40;8.77;;;8.67;;
3050;SDS011;1535;51.098;6.414;2023-11-19T08:46:09;8.70;;;8.60;;
3050;SDS011;1535;51.098;6.414;2023-11-19T08:48:37;9.03;;;8.83;;
3050;SDS011;1535;51.098;6.414;2023-11-19T08:51:04;9.10;;;8.90;;
3050;SDS011;1535;51.098;6.414;2023-11-19T08:53:32;9.10;;;8.90;;
3050;SDS011;1535;51.098;6.414;2023-11-19T08:55:59;9.20;;;9.00;;
3050;SDS011;1535;51.098;6.414;2023-11-19T08:58:27;9.67;;;9.47;;
3050;SDS011;1535;51.098;6.414;2023-11-19T09:00:56;9.17;;;8.97;;
3050;SDS011;1535;51.098;6.414;2023-11-19T09:03:23;10.20;;;10.00;;
3050;SDS011;1535;51.098;6.414;2023-11-19T09:05:52;10.20;;;10.00;;
3050;SDS011;1535;51.098;6.414;2023-11-19T09:08:34;9.70;;;9.50;;
3050;SDS011;1535;51.098;6.414;2023-11-19T09:11:15;10.17;;;9.97;;
3050;SDS011;1535;51.098;6.414;2023-11-19T09:13:43;9.80;;;9.60;;
3050;SDS011;1535;51.098;6.414;2023-11-19T09:16:11;9.13;;;8.93;;
3050;SDS011;1535;51.098;6.414;2023-11-19T09:18:38;9.97;;;9.77;;
3050;SDS011;1535;51.098;6.414;2023-11-19T09:21:07;10.20;;;10.00;;
3050;SDS011;1535;51.098;6.414;2023-11-19T09:23:36;10.60;;;10.40;;
3050;SDS011;1535;51.098;6.414;2023-11-19T09:26:04;10.50;;;10.30;;
3050;SDS011;1535;51.098;6.414;2023-11-19T09:28:31;10.40;;;10.20;;
3050;SDS011;1535;51.098;6.414;2023-11-19T09:30:58;10.43;;;10.23;;
3050;SDS011;1535;51.098;6.414;2023-11-19T09:33:25;11.20;;;10.90;;
3050;SDS011;1535;51.098;6.414;2023-11-19T09:35:52;11.10;;;10.80;;
3050;SDS011;1535;51.098;6.414;2023-11-19T09:38:21;11.20;;;10.90;;
3050;SDS011;1535;51.098;6.414;2023-11-19T09:40:49;11.20;;;10.90;;
3050;SDS011;1535;51.098;6.414;2023-11-19T09:43:15;10.57;;;10.37;;
3050;SDS011;1535;51.098;6.414;2023-11-19T09:45:45;10.90;;;10.63;;
3050;SDS011;1535;51.098;6.414;2023-11-19T09:48:16;11.00;;;10.70;;
3050;SDS011;1535;51.098;6.414;2023-11-19T09:50:45;10.50;;;10.30;;
3050;SDS011;1535;51.098;6.414;2023-11-19T09:53:15;10.43;;;10.23;;
3050;SDS011;1535;51.098;6.414;2023-11-19T09:55:43;10.13;;;9.93;;
3050;SDS011;1535;51.098;6.414;2023-11-19T09:58:11;10.50;;;10.30;;
3050;SDS011;1535;51.098;6.414;2023-11-19T10:00:40;10.57;;;10.37;;
3050;SDS011;1535;51.098;6.414;2023-11-19T10:03:08;10.80;;;10.60;;
3050;SDS011;1535;51.098;6.414;2023-11-19T10:05:37;10.47;;;10.27;;
3050;SDS011;1535;51.098;6.414;2023-11-19T10:08:05;10.70;;;10.50;;
3050;SDS011;1535;51.098;6.414;2023-11-19T10:10:32;10.73;;;10.53;;
3050;SDS011;1535;51.098;6.414;2023-11-19T10:13:01;10.70;;;10.50;;
3050;SDS011;1535;51.098;6.414;2023-11-19T10:15:29;11.27;;;10.97;;
3050;SDS011;1535;51.098;6.414;2023-11-19T10:18:02;11.33;;;11.03;;
3050;SDS011;1535;51.098;6.414;2023-11-19T10:20:32;11.90;;;11.60;;
3050;SDS011;1535;51.098;6.414;2023-11-19T10:23:01;11.07;;;10.77;;
3050;SDS011;1535;51.098;6.414;2023-11-19T10:25:29;11.13;;;10.83;;
3050;SDS011;1535;51.098;6.414;2023-11-19T10:27:58;11.50;;;11.20;;
3050;SDS011;1535;51.098;6.414;2023-11-19T10:30:27;10.60;;;10.40;;
3050;SDS011;1535;51.098;6.414;2023-11-19T10:33:04;11.20;;;10.90;;
3050;SDS011;1535;51.098;6.414;2023-11-19T10:35:32;11.13;;;10.83;;
3050;SDS011;1535;51.098;6.414;2023-11-19T10:38:00;10.90;;;10.70;;
3050;SDS011;1535;51.098;6.414;2023-11-19T10:40:40;11.87;;;11.57;;
3050;SDS011;1535;51.098;6.414;2023-11-19T10:43:08;12.07;;;11.77;;
3050;SDS011;1535;51.098;6.414;2023-11-19T10:45:37;12.03;;;11.73;;
3050;SDS011;1535;51.098;6.414;2023-11-19T10:48:05;12.50;;;12.10;;
3050;SDS011;1535;51.098;6.414;2023-11-19T10:50:32;11.70;;;11.40;;
3050;SDS011;1535;51.098;6.414;2023-11-19T10:53:01;12.13;;;11.83;;
3050;SDS011;1535;51.098;6.414;2023-11-19T10:55:29;12.03;;;11.73;;
3050;SDS011;1535;51.098;6.414;2023-11-19T10:57:58;12.07;;;11.77;;
3050;SDS011;1535;51.098;6.414;2023-11-19T11:00:27;11.70;;;11.40;;
3050;SDS011;1535;51.098;6.414;2023-11-19T11:03:00;11.87;;;11.57;;
3050;SDS011;1535;51.098;6.414;2023-11-19T11:05:29;11.90;;;11.60;;
3050;SDS011;1535;51.098;6.414;2023-11-19T11:08:00;11.33;;;11.03;;
3050;SDS011;1535;51.098;6.414;2023-11-19T11:10:27;11.43;;;11.13;;
3050;SDS011;1535;51.098;6.414;2023-11-19T11:12:58;11.37;;;11.07;;
3050;SDS011;1535;51.098;6.414;2023-11-19T11:15:29;11.63;;;11.33;;
3050;SDS011;1535;51.098;6.414;2023-11-19T11:17:59;11.03;;;10.73;;
3050;SDS011;1535;51.098;6.414;2023-11-19T11:20:28;11.43;;;11.13;;
3050;SDS011;1535;51.098;6.414;2023-11-19T11:23:04;11.83;;;11.53;;
3050;SDS011;1535;51.098;6.414;2023-11-19T11:26:00;11.93;;;11.63;;
3050;SDS011;1535;51.098;6.414;2023-11-19T11:28:48;11.90;;;11.60;;
3050;SDS011;1535;51.098;6.414;2023-11-19T11:31:26;11.77;;;11.47;;
3050;SDS011;1535;51.098;6.414;2023-11-19T11:34:08;11.83;;;11.53;;
3050;SDS011;1535;51.098;6.414;2023-11-19T11:36:50;12.10;;;11.80;;
3050;SDS011;1535;51.098;6.414;2023-11-19T11:39:24;12.10;;;11.80;;
3050;SDS011;1535;51.098;6.414;2023-11-19T11:44:59;12.77;;;12.37;;
3050;SDS011;1535;51.098;6.414;2023-11-19T11:50:30;12.33;;;12.03;;
3050;SDS011;1535;51.098;6.414;2023-11-19T11:53:16;12.00;;;11.70;;
3050;SDS011;1535;51.098;6.414;2023-11-19T11:55:56;12.53;;;12.13;;
3050;SDS011;1535;51.098;6.414;2023-11-19T11:58:26;12.43;;;12.13;;
3050;SDS011;1535;51.098;6.414;2023-11-19T12:01:03;12.10;;;11.80;;
3050;SDS011;1535;51.098;6.414;2023-11-19T12:03:34;11.80;;;11.50;;
3050;SDS011;1535;51.098;6.414;2023-11-19T12:06:05;12.80;;;12.40;;
3050;SDS011;1535;51.098;6.414;2023-11-19T12:08:33;12.10;;;11.80;;
3050;SDS011;1535;51.098;6.414;2023-11-19T12:11:01;12.10;;;11.80;;
3050;SDS011;1535;51.098;6.414;2023-11-19T12:13:52;12.67;;;12.27;;
3050;SDS011;1535;51.098;6.414;2023-11-19T12:16:23;12.80;;;12.40;;
3050;SDS011;1535;51.098;6.414;2023-11-19T12:18:52;12.57;;;12.17;;
3050;SDS011;1535;51.098;6.414;2023-11-19T12:24:07;14.70;;;14.20;;
3050;SDS011;1535;51.098;6.414;2023-11-19T12:26:35;14.57;;;13.97;;
3050;SDS011;1535;51.098;6.414;2023-11-19T12:29:03;14.57;;;13.97;;
3050;SDS011;1535;51.098;6.414;2023-11-19T12:31:32;14.50;;;13.90;;
3050;SDS011;1535;51.098;6.414;2023-11-19T12:34:10;14.10;;;13.60;;
3050;SDS011;1535;51.098;6.414;2023-11-19T12:36:42;13.00;;;12.60;;
3050;SDS011;1535;51.098;6.414;2023-11-19T12:39:09;12.43;;;12.03;;
3050;SDS011;1535;51.098;6.414;2023-11-19T12:41:53;11.10;;;10.80;;
3050;SDS011;1535;51.098;6.414;2023-11-19T12:44:21;11.53;;;11.23;;
3050;SDS011;1535;51.098;6.414;2023-11-19T12:46:58;11.53;;;11.23;;
3050;SDS011;1535;51.098;6.414;2023-11-19T12:49:27;10.63;;;10.43;;
3050;SDS011;1535;51.098;6.414;2023-11-19T12:51:56;10.67;;;10.47;;
3050;SDS011;1535;51.098;6.414;2023-11-19T12:54:31;11.30;;;11.00;;
3050;SDS011;1535;51.098;6.414;2023-11-19T12:56:59;11.80;;;11.50;;
3050;SDS011;1535;51.098;6.414;2023-11-19T12:59:26;11.00;;;10.70;;
3050;SDS011;1535;51.098;6.414;2023-11-19T13:01:53;11.97;;;11.67;;
3050;SDS011;1535;51.098;6.414;2023-11-19T13:04:35;11.40;;;11.10;;
3050;SDS011;1535;51.098;6.414;2023-11-19T13:07:03;11.90;;;11.60;;
3050;SDS011;1535;51.098;6.414;2023-11-19T13:09:30;12.20;;;11.90;;
3050;SDS011;1535;51.098;6.414;2023-11-19T13:11:57;12.00;;;11.70;;
3050;SDS011;1535;51.098;6.414;2023-11-19T13:14:35;11.27;;;10.97;;
3050;SDS011;1535;51.098;6.414;2023-11-19T13:17:04;11.13;;;10.83;;
3050;SDS011;1535;51.098;6.414;2023-11-19T13:19:33;12.20;;;11.90;;
3050;SDS011;1535;51.098;6.414;2023-11-19T13:22:00;11.77;;;11.47;;
3050;SDS011;1535;51.098;6.414;2023-11-19T13:24:28;11.70;;;11.40;;
3050;SDS011;1535;51.098;6.414;2023-11-19T13:26:55;11.83;;;11.53;;
3050;SDS011;1535;51.098;6.414;2023-11-19T13:29:23;11.93;;;11.63;;
3050;SDS011;1535;51.098;6.414;2023-11-19T13:31:52;11.80;;;11.50;;
3050;SDS011;1535;51.098;6.414;2023-11-19T13:34:20;12.20;;;11.90;;
3050;SDS011;1535;51.098;6.414;2023-11-19T13:36:46;11.90;;;11.60;;
3050;SDS011;1535;51.098;6.414;2023-11-19T13:39:13;12.10;;;11.80;;
3050;SDS011;1535;51.098;6.414;2023-11-19T13:41:49;12.10;;;11.80;;
3050;SDS011;1535;51.098;6.414;2023-11-19T13:44:16;13.00;;;12.60;;
3050;SDS011;1535;51.098;6.414;2023-11-19T13:46:45;13.03;;;12.63;;
3050;SDS011;1535;51.098;6.414;2023-11-19T13:49:13;12.70;;;12.30;;
3050;SDS011;1535;51.098;6.414;2023-11-19T13:51:40;14.50;;;14.00;;
3050;SDS011;1535;51.098;6.414;2023-11-19T13:54:07;16.30;;;15.60;;
3050;SDS011;1535;51.098;6.414;2023-11-19T13:56:34;17.73;;;16.93;;
3050;SDS011;1535;51.098;6.414;2023-11-19T13:59:03;16.60;;;15.90;;
3050;SDS011;1535;51.098;6.414;2023-11-19T14:01:29;15.67;;;14.97;;
3050;SDS011;1535;51.098;6.414;2023-11-19T14:03:56;15.90;;;15.20;;
3050;SDS011;1535;51.098;6.414;2023-11-19T14:06:24;20.87;;;19.57;;
3050;SDS011;1535;51.098;6.414;2023-11-19T14:08:52;18.80;;;17.70;;
3050;SDS011;1535;51.098;6.414;2023-11-19T14:11:19;18.10;;;17.00;;
3050;SDS011;1535;51.098;6.414;2023-11-19T14:13:45;17.00;;;16.10;;
3050;SDS011;1535;51.098;6.414;2023-11-19T14:16:16;17.00;;;16.10;;
3050;SDS011;1535;51.098;6.414;2023-11-19T14:18:43;16.97;;;16.07;;
3050;SDS011;1535;51.098;6.414;2023-11-19T14:21:10;15.70;;;15.00;;
3050;SDS011;1535;51.098;6.414;2023-11-19T14:23:37;15.20;;;14.50;;
3050;SDS011;1535;51.098;6.414;2023-11-19T14:26:04;15.47;;;14.77;;
3050;SDS011;1535;51.098;6.414;2023-11-19T14:28:31;14.90;;;14.30;;
3050;SDS011;1535;51.098;6.414;2023-11-19T14:30:57;13.60;;;13.10;;
3050;SDS011;1535;51.098;6.414;2023-11-19T14:33:26;12.70;;;12.30;;
3050;SDS011;1535;51.098;6.414;2023-11-19T14:35:53;12.70;;;12.30;;
3050;SDS011;1535;51.098;6.414;2023-11-19T14:38:20;13.30;;;12.80;;
3050;SDS011;1535;51.098;6.414;2023-11-19T14:40:48;13.33;;;12.83;;
3050;SDS011;1535;51.098;6.414;2023-11-19T14:43:15;13.60;;;13.10;;
3050;SDS011;1535;51.098;6.414;2023-11-19T14:45:41;12.97;;;12.50;;
3050;SDS011;1535;51.098;6.414;2023-11-19T14:48:09;20.13;;;18.93;;
3050;SDS011;1535;51.098;6.414;2023-11-19T14:50:37;18.73;;;17.63;;
3050;SDS011;1535;51.098;6.414;2023-11-19T14:53:04;17.60;;;16.60;;
3050;SDS011;1535;51.098;6.414;2023-11-19T14:55:31;16.90;;;16.00;;
3050;SDS011;1535;51.098;6.414;2023-11-19T14:57:58;16.40;;;15.60;;
3050;SDS011;1535;51.098;6.414;2023-11-19T15:00:25;16.77;;;15.87;;
3050;SDS011;1535;51.098;6.414;2023-11-19T15:02:53;16.63;;;15.73;;
3050;SDS011;1535;51.098;6.414;2023-11-19T15:05:21;16.10;;;15.30;;
3050;SDS011;1535;51.098;6.414;2023-11-19T15:07:49;15.67;;;14.87;;
3050;SDS011;1535;51.098;6.414;2023-11-19T15:10:16;15.77;;;14.97;;
3050;SDS011;1535;51.098;6.414;2023-11-19T15:12:42;15.70;;;14.90;;
3050;SDS011;1535;51.098;6.414;2023-11-19T15:15:11;14.93;;;14.23;;
3050;SDS011;1535;51.098;6.414;2023-11-19T15:17:39;14.07;;;13.47;;
3050;SDS011;1535;51.098;6.414;2023-11-19T15:20:06;14.40;;;13.80;;
3050;SDS011;1535;51.098;6.414;2023-11-19T15:22:34;13.50;;;13.00;;